Time;durP1;ratioP1;P1;durP2;ratioP2;P2;SDS_P1;SDS_P2;PMS_P1;PMS_P2;Temp;Humidity;BMP_temperature;BMP_pressure;BME280_temperature;BME280_humidity;BME280_pressure;Samples;Min_cycle;Max_cycle;Signal;HPM_P1;HPM_P2
2021/11/06 00:01:08;;;;;;;16.97;5.40;;;22.20;55.40;;;;;;5258669;28;20054;-55
2021/11/06 00:03:41;;;;;;;12.48;5.40;;;22.20;55.40;;;;;;5261838;28;20053;-52
2021/11/06 00:06:13;;;;;;;14.82;5.50;;;22.10;55.30;;;;;;5253073;27;20051;-49
2021/11/06 00:08:46;;;;;;;15.98;5.53;;;22.20;55.30;;;;;;5252828;28;20044;-54
2021/11/06 00:11:19;;;;;;;17.67;6.33;;;22.10;55.30;;;;;;5256183;28;20046;-53
2021/11/06 00:13:51;;;;;;;18.95;5.90;;;22.20;55.30;;;;;;5262450;28;20047;-58
2021/11/06 00:16:24;;;;;;;16.17;5.78;;;22.10;55.20;;;;;;5261614;28;20051;-51
2021/11/06 00:18:56;;;;;;;19.88;5.38;;;22.10;55.20;;;;;;5257612;28;20052;-52
2021/11/06 00:21:29;;;;;;;12.75;5.38;;;22.10;55.20;;;;;;5255359;28;20428;-53
2021/11/06 00:24:01;;;;;;;16.65;5.47;;;22.10;55.20;;;;;;5258337;28;20056;-50
2021/11/06 00:26:34;;;;;;;25.02;5.38;;;22.10;55.20;;;;;;5237462;28;20488;-54
2021/11/06 00:29:06;;;;;;;10.30;4.60;;;22.10;55.10;;;;;;5242668;28;20039;-52
2021/11/06 00:31:38;;;;;;;20.13;5.60;;;22.10;55.30;;;;;;5259523;28;20043;-48
2021/11/06 00:34:11;;;;;;;24.98;6.10;;;22.20;55.20;;;;;;5261442;28;20035;-46
2021/11/06 00:36:43;;;;;;;25.23;6.05;;;22.10;55.10;;;;;;5260267;28;20215;-52
2021/11/06 00:39:16;;;;;;;40.90;5.93;;;22.10;55.10;;;;;;5260472;28;20308;-55
2021/11/06 00:41:49;;;;;;;13.88;5.38;;;22.10;55.10;;;;;;5263747;28;20669;-48
2021/11/06 00:44:22;;;;;;;8.70;4.38;;;22.10;55.10;;;;;;5265104;28;20046;-53
2021/11/06 00:46:55;;;;;;;11.95;4.97;;;22.10;55.40;;;;;;5256770;28;20046;-49
2021/11/06 00:49:27;;;;;;;12.55;4.93;;;22.10;55.00;;;;;;5261123;28;20050;-51
2021/11/06 00:52:00;;;;;;;9.70;4.85;;;22.10;54.90;;;;;;5244962;28;20515;-52
2021/11/06 00:54:34;;;;;;;13.50;4.70;;;22.10;54.90;;;;;;5264687;28;20054;-49
2021/11/06 00:57:06;;;;;;;;;;;22.10;54.80;;;;;;5261463;28;20044;-57
2021/11/06 00:59:39;;;;;;;12.60;4.20;;;22.00;54.70;;;;;;5261881;28;19931;-50
2021/11/06 01:02:11;;;;;;;8.48;4.60;;;22.00;54.80;;;;;;5251834;28;20586;-53
2021/11/06 01:04:44;;;;;;;12.07;4.72;;;22.00;54.80;;;;;;5259356;28;20256;-57
2021/11/06 01:07:17;;;;;;;9.85;4.18;;;22.10;54.70;;;;;;5262068;28;20044;-51
2021/11/06 01:09:49;;;;;;;9.45;4.40;;;22.00;54.60;;;;;;5263245;28;20051;-56
2021/11/06 01:12:22;;;;;;;6.68;4.38;;;22.10;54.70;;;;;;5259859;28;20052;-50
2021/11/06 01:14:54;;;;;;;9.23;4.80;;;22.00;54.60;;;;;;5263887;28;20043;-53
2021/11/06 01:17:26;;;;;;;6.30;4.20;;;22.00;54.60;;;;;;5244217;28;20043;-55
2021/11/06 01:20:01;;;;;;;6.65;4.00;;;22.00;54.60;;;;;;5253163;28;20044;-57
2021/11/06 01:22:34;;;;;;;6.00;3.80;;;22.00;54.50;;;;;;5249842;28;20423;-58
2021/11/06 01:25:08;;;;;;;7.90;3.85;;;22.00;54.50;;;;;;5259037;28;20055;-52
2021/11/06 01:27:41;;;;;;;6.78;4.13;;;22.00;54.50;;;;;;5260854;28;20818;-58
2021/11/06 01:30:14;;;;;;;7.93;3.92;;;22.00;54.60;;;;;;5252319;28;20125;-48
2021/11/06 01:32:49;;;;;;;5.88;3.90;;;22.00;54.50;;;;;;5246404;28;20193;-52
2021/11/06 01:35:22;;;;;;;8.35;4.13;;;22.00;54.50;;;;;;5252039;28;20057;-48
2021/11/06 01:37:57;;;;;;;6.05;4.07;;;22.00;54.60;;;;;;5239254;28;20059;-55
2021/11/06 01:40:30;;;;;;;5.38;3.50;;;22.00;54.60;;;;;;5246747;28;20468;-53
2021/11/06 01:43:02;;;;;;;8.98;3.67;;;22.00;54.60;;;;;;5254704;28;20689;-50
2021/11/06 01:45:35;;;;;;;6.47;4.32;;;22.00;54.50;;;;;;5244092;28;20040;-57
2021/11/06 01:48:07;;;;;;;8.03;3.80;;;22.00;55.20;;;;;;5243974;28;20411;-58
2021/11/06 01:50:40;;;;;;;8.33;3.90;;;22.00;54.60;;;;;;5242043;28;20039;-57
2021/11/06 01:53:12;;;;;;;6.88;3.78;;;22.00;54.60;;;;;;5248103;28;20735;-56
2021/11/06 01:55:47;;;;;;;10.50;4.28;;;22.00;54.70;;;;;;5249308;27;20047;-55
2021/11/06 01:58:21;;;;;;;9.13;3.83;;;22.00;54.60;;;;;;5244122;28;20043;-55
2021/11/06 02:00:54;;;;;;;6.32;4.03;;;22.00;54.60;;;;;;5246138;28;20603;-53
2021/11/06 02:03:27;;;;;;;7.88;4.22;;;22.00;54.60;;;;;;5249308;28;21359;-57
2021/11/06 02:06:00;;;;;;;7.65;4.25;;;22.00;54.60;;;;;;5229076;28;20436;-52
2021/11/06 02:08:32;;;;;;;5.88;3.90;;;22.00;54.60;;;;;;5249992;28;20040;-58
2021/11/06 02:11:06;;;;;;;6.68;3.80;;;22.00;54.70;;;;;;5227981;28;20040;-54
2021/11/06 02:13:38;;;;;;;5.85;3.70;;;22.00;54.60;;;;;;5249783;27;20043;-58
2021/11/06 02:16:10;;;;;;;11.05;4.10;;;22.00;54.60;;;;;;5232955;28;20050;-54
2021/11/06 02:18:46;;;;;;;7.88;4.15;;;22.00;54.60;;;;;;5253811;28;20056;-55
2021/11/06 02:21:20;;;;;;;9.98;4.45;;;22.00;54.60;;;;;;5247346;28;20053;-52
2021/11/06 02:23:52;;;;;;;7.93;3.85;;;22.00;54.60;;;;;;5227542;28;20519;-52
2021/11/06 02:26:25;;;;;;;7.35;3.90;;;21.90;54.50;;;;;;5231720;28;20047;-52
2021/11/06 02:29:16;;;;;;;6.75;3.97;;;22.00;54.50;;;;;;5247818;28;26213;-55
2021/11/06 02:31:48;;;;;;;6.05;3.85;;;22.00;54.50;;;;;;5255858;28;20044;-50
2021/11/06 02:34:21;;;;;;;8.52;4.00;;;22.00;54.50;;;;;;5252909;28;20423;-56
2021/11/06 02:36:54;;;;;;;7.57;3.83;;;22.00;54.40;;;;;;5246457;28;20798;-56
2021/11/06 02:39:26;;;;;;;5.25;3.55;;;22.00;54.30;;;;;;5230520;28;20511;-51
2021/11/06 02:42:08;;;;;;;5.55;4.00;;;22.00;54.40;;;;;;5245697;28;20051;-58
2021/11/06 02:44:41;;;;;;;6.38;3.42;;;22.00;54.20;;;;;;5252317;28;20559;-49
2021/11/06 02:47:14;;;;;;;4.87;3.73;;;22.00;54.20;;;;;;5248610;28;20035;-50
2021/11/06 02:49:46;;;;;;;4.88;3.50;;;21.90;54.20;;;;;;5247925;28;21233;-52
2021/11/06 02:52:19;;;;;;;5.37;3.77;;;21.90;54.20;;;;;;5250554;28;20046;-50
2021/11/06 02:54:52;;;;;;;4.65;3.50;;;21.90;54.20;;;;;;5245121;28;20281;-53
2021/11/06 02:57:24;;;;;;;5.40;3.37;;;21.90;54.20;;;;;;5233910;28;20048;-51
2021/11/06 02:59:57;;;;;;;4.40;2.97;;;21.90;54.10;;;;;;5241469;28;20400;-54
2021/11/06 03:02:29;;;;;;;8.70;3.30;;;21.90;54.10;;;;;;5244102;27;20073;-48
2021/11/06 03:05:07;;;;;;;4.70;3.25;;;21.90;54.10;;;;;;5238186;27;20279;-54
2021/11/06 03:07:40;;;;;;;7.75;3.47;;;22.00;54.00;;;;;;5244707;28;20431;-53
2021/11/06 03:10:13;;;;;;;7.33;3.13;;;21.90;53.90;;;;;;5238358;28;20506;-51
2021/11/06 03:12:48;;;;;;;5.10;3.70;;;21.90;53.90;;;;;;5242316;28;21175;-53
2021/11/06 03:15:22;;;;;;;5.25;3.65;;;22.00;54.00;;;;;;5242770;28;20609;-55
2021/11/06 03:17:54;;;;;;;8.43;3.10;;;21.90;54.00;;;;;;5249622;28;20040;-54
2021/11/06 03:20:26;;;;;;;5.25;3.00;;;21.90;54.00;;;;;;5242947;28;20859;-53
2021/11/06 03:22:59;;;;;;;7.25;3.65;;;21.90;53.90;;;;;;5242646;28;20052;-55
2021/11/06 03:25:32;;;;;;;8.05;3.30;;;22.00;54.00;;;;;;5245512;28;20043;-57
2021/11/06 03:28:04;;;;;;;5.38;3.38;;;21.90;54.60;;;;;;5218689;28;20050;-53
2021/11/06 03:30:37;;;;;;;6.05;3.03;;;21.90;53.90;;;;;;5239800;28;20051;-52
2021/11/06 03:33:09;;;;;;;5.13;3.27;;;21.90;53.90;;;;;;5240616;28;20058;-51
2021/11/06 03:35:41;;;;;;;5.00;3.00;;;21.90;54.00;;;;;;5233614;28;20661;-55
2021/11/06 03:38:14;;;;;;;4.68;3.30;;;21.90;53.90;;;;;;5247354;28;20043;-50
2021/11/06 03:40:46;;;;;;;5.13;3.20;;;21.90;53.90;;;;;;5241951;28;20047;-54
2021/11/06 03:43:19;;;;;;;5.47;2.80;;;21.90;53.90;;;;;;5244951;28;20048;-52
2021/11/06 03:45:52;;;;;;;6.43;3.33;;;21.90;53.90;;;;;;5238536;28;20428;-54
2021/11/06 03:48:24;;;;;;;6.57;2.75;;;21.90;54.00;;;;;;5229082;27;20044;-55
2021/11/06 03:50:57;;;;;;;5.07;2.75;;;21.90;54.10;;;;;;5238756;28;20560;-54
2021/11/06 03:53:30;;;;;;;5.93;3.05;;;21.90;54.10;;;;;;5240179;28;22526;-57
2021/11/06 03:56:03;;;;;;;4.97;2.45;;;21.90;54.20;;;;;;5229527;28;20529;-59
2021/11/06 03:58:35;;;;;;;4.13;2.83;;;21.90;54.20;;;;;;5228816;28;20681;-55
2021/11/06 04:01:08;;;;;;;4.47;2.83;;;21.90;54.30;;;;;;5232195;28;20052;-58
2021/11/06 04:03:40;;;;;;;5.13;2.87;;;21.90;54.30;;;;;;5216624;28;20067;-51
2021/11/06 04:06:14;;;;;;;6.30;2.85;;;21.90;54.40;;;;;;5229156;28;20051;-58
2021/11/06 04:08:46;;;;;;;4.60;2.97;;;21.90;54.40;;;;;;5237764;28;20046;-50
2021/11/06 04:11:19;;;;;;;7.05;2.80;;;21.90;54.40;;;;;;5244121;28;20059;-55
2021/11/06 04:13:51;;;;;;;6.47;3.03;;;21.90;54.40;;;;;;5231008;28;20043;-50
2021/11/06 04:16:24;;;;;;;3.40;2.47;;;21.90;54.50;;;;;;5240765;28;20052;-60
2021/11/06 04:18:56;;;;;;;3.50;2.40;;;21.90;54.50;;;;;;5242532;28;20048;-51
2021/11/06 04:21:29;;;;;;;7.95;3.03;;;21.90;54.50;;;;;;5247176;28;21313;-53
2021/11/06 04:24:02;;;;;;;6.70;2.70;;;21.90;54.60;;;;;;5242342;28;20047;-51
2021/11/06 04:26:34;;;;;;;6.15;2.75;;;21.90;54.70;;;;;;5216870;28;20052;-54
2021/11/06 04:29:07;;;;;;;5.40;2.53;;;21.90;54.60;;;;;;5243069;28;20046;-50
2021/11/06 04:31:39;;;;;;;7.35;2.60;;;21.90;54.70;;;;;;5239359;28;20043;-56
2021/11/06 04:34:12;;;;;;;6.93;2.90;;;21.90;54.70;;;;;;5244908;28;20465;-50
2021/11/06 04:36:44;;;;;;;6.72;2.67;;;21.90;54.80;;;;;;5246787;28;20055;-50
2021/11/06 04:39:17;;;;;;;5.97;2.37;;;21.90;54.80;;;;;;5231358;28;20040;-53
2021/11/06 04:41:50;;;;;;;9.18;2.80;;;21.90;54.80;;;;;;5247533;28;20040;-53
2021/11/06 04:44:23;;;;;;;5.57;2.63;;;21.90;54.80;;;;;;5252954;28;20043;-51
2021/11/06 04:46:55;;;;;;;6.60;3.28;;;21.90;54.80;;;;;;5236684;28;20044;-53
2021/11/06 04:49:27;;;;;;;4.30;2.95;;;21.90;54.80;;;;;;5242921;28;20438;-52
2021/11/06 04:52:00;;;;;;;3.95;2.53;;;21.90;54.80;;;;;;5239035;28;20059;-49
2021/11/06 04:54:33;;;;;;;3.72;2.30;;;22.00;54.90;;;;;;5249185;28;20059;-53
2021/11/06 04:57:06;;;;;;;8.43;2.90;;;21.90;54.90;;;;;;5237883;28;20970;-50
2021/11/06 04:59:38;;;;;;;5.95;2.85;;;22.00;55.00;;;;;;5252467;28;20070;-54
2021/11/06 05:02:10;;;;;;;5.18;2.38;;;21.90;55.00;;;;;;5245067;28;20471;-51
2021/11/06 05:04:43;;;;;;;3.58;2.50;;;21.90;55.00;;;;;;5245634;28;20078;-59
2021/11/06 05:07:15;;;;;;;7.30;2.50;;;21.90;55.00;;;;;;5237827;28;20039;-55
2021/11/06 05:09:48;;;;;;;5.00;3.08;;;21.90;55.10;;;;;;5240200;28;20051;-51
2021/11/06 05:12:22;;;;;;;4.53;3.03;;;22.00;55.10;;;;;;5240812;28;20039;-51
2021/11/06 05:14:55;;;;;;;8.63;2.95;;;21.90;55.10;;;;;;5244004;28;20427;-58
2021/11/06 05:17:27;;;;;;;5.40;2.85;;;21.90;55.10;;;;;;5246707;28;20044;-58
2021/11/06 05:20:02;;;;;;;7.63;2.92;;;21.90;55.20;;;;;;5241349;28;20058;-58
2021/11/06 05:22:35;;;;;;;6.72;2.38;;;21.90;55.20;;;;;;5233496;28;20051;-58
2021/11/06 05:25:09;;;;;;;9.93;3.40;;;22.00;55.20;;;;;;5245173;28;20333;-57
2021/11/06 05:27:42;;;;;;;7.03;3.00;;;21.90;55.20;;;;;;5251093;28;20427;-57
2021/11/06 05:30:14;;;;;;;8.82;2.72;;;21.90;55.20;;;;;;5230729;28;20070;-54
2021/11/06 05:32:46;;;;;;;7.78;2.85;;;21.90;55.20;;;;;;5251532;28;20051;-56
2021/11/06 05:35:19;;;;;;;10.90;2.72;;;22.00;55.30;;;;;;5243589;28;20059;-50
2021/11/06 05:37:51;;;;;;;8.30;2.60;;;22.00;55.30;;;;;;5250382;28;20043;-55
2021/11/06 05:40:24;;;;;;;10.57;2.85;;;22.00;55.30;;;;;;5239835;28;20052;-52
2021/11/06 05:42:56;;;;;;;10.17;2.87;;;22.00;55.30;;;;;;5251527;28;20424;-55
2021/11/06 05:45:29;;;;;;;8.60;3.17;;;22.00;55.20;;;;;;5250395;28;20055;-54
2021/11/06 05:48:01;;;;;;;9.40;2.80;;;22.10;55.20;;;;;;5244110;28;20507;-52
2021/11/06 05:50:34;;;;;;;12.23;3.28;;;22.10;55.20;;;;;;5242064;28;25960;-48
2021/11/06 05:53:06;;;;;;;14.35;3.08;;;22.10;55.20;;;;;;5240281;28;20050;-58
2021/11/06 05:55:39;;;;;;;16.88;3.33;;;22.10;55.10;;;;;;5239117;28;20035;-53
2021/11/06 05:58:11;;;;;;;6.03;2.78;;;22.10;55.10;;;;;;5239704;28;20059;-52
2021/11/06 06:00:44;;;;;;;7.50;2.90;;;22.20;55.10;;;;;;5251751;28;20232;-50
2021/11/06 06:03:17;;;;;;;6.82;2.30;;;22.20;55.10;;;;;;5247627;28;20050;-53
2021/11/06 06:05:49;;;;;;;8.35;3.10;;;22.20;55.10;;;;;;5243191;28;20645;-54
2021/11/06 06:08:22;;;;;;;7.68;2.55;;;22.20;55.10;;;;;;5246052;28;20032;-53
2021/11/06 06:10:55;;;;;;;5.90;2.90;;;22.20;55.00;;;;;;5242353;28;20046;-54
2021/11/06 06:13:29;;;;;;;4.18;2.35;;;22.20;55.70;;;;;;5243601;28;25855;-50
2021/11/06 06:16:01;;;;;;;8.93;3.00;;;22.20;55.00;;;;;;5223419;28;20059;-52
2021/11/06 06:18:34;;;;;;;9.43;3.50;;;22.20;55.00;;;;;;5245767;27;20039;-53
2021/11/06 06:21:06;;;;;;;8.23;3.20;;;22.30;55.00;;;;;;5240118;28;20043;-51
2021/11/06 06:23:40;;;;;;;7.40;2.67;;;22.20;55.60;;;;;;5241823;28;20043;-55
2021/11/06 06:26:13;;;;;;;8.43;2.63;;;22.30;55.00;;;;;;5237864;28;20044;-54
2021/11/06 06:28:46;;;;;;;4.50;2.28;;;22.30;54.90;;;;;;5235775;28;20052;-57
2021/11/06 06:31:19;;;;;;;4.18;2.92;;;22.30;54.90;;;;;;5237979;28;20044;-58
2021/11/06 06:33:51;;;;;;;5.30;2.50;;;22.30;54.90;;;;;;5238567;28;20035;-50
2021/11/06 06:36:24;;;;;;;9.18;3.25;;;22.30;54.90;;;;;;5236569;28;20074;-53
2021/11/06 06:38:56;;;;;;;5.47;2.70;;;22.30;54.90;;;;;;5233939;27;20729;-58
2021/11/06 06:41:29;;;;;;;8.43;2.83;;;22.30;54.90;;;;;;5240023;28;25326;-55
2021/11/06 06:44:02;;;;;;;4.25;2.28;;;22.40;54.90;;;;;;5238869;28;21869;-49
2021/11/06 06:46:34;;;;;;;7.97;2.47;;;22.40;54.90;;;;;;5233436;28;20040;-56
2021/11/06 06:49:07;;;;;;;11.32;2.65;;;22.40;54.90;;;;;;5235036;28;20050;-53
2021/11/06 06:51:39;;;;;;;9.77;2.78;;;22.40;55.00;;;;;;5240637;28;20716;-53
2021/11/06 06:54:12;;;;;;;7.40;2.40;;;22.40;55.00;;;;;;5244174;27;20048;-49
2021/11/06 06:56:44;;;;;;;6.55;2.58;;;22.40;55.00;;;;;;5229629;28;20502;-52
2021/11/06 06:59:17;;;;;;;6.43;2.72;;;22.40;55.00;;;;;;5229484;28;20953;-55
2021/11/06 07:01:49;;;;;;;11.02;2.47;;;22.40;55.10;;;;;;5235061;28;20059;-59
2021/11/06 07:04:22;;;;;;;8.57;3.40;;;22.40;55.10;;;;;;5233491;28;20040;-54
2021/11/06 07:06:54;;;;;;;9.27;2.78;;;22.40;55.10;;;;;;5230829;28;20415;-54
2021/11/06 07:09:27;;;;;;;12.88;3.35;;;22.40;55.20;;;;;;5244921;28;20048;-52
2021/11/06 07:12:00;;;;;;;11.50;2.85;;;22.40;55.10;;;;;;5231854;28;20044;-53
2021/11/06 07:14:33;;;;;;;14.63;2.53;;;22.40;55.10;;;;;;5241083;28;20031;-52
2021/11/06 07:17:05;;;;;;;12.77;3.33;;;22.50;55.20;;;;;;5232347;28;20047;-50
2021/11/06 07:19:38;;;;;;;8.77;2.75;;;22.40;55.20;;;;;;5237582;28;20048;-55
2021/11/06 07:22:10;;;;;;;11.10;2.65;;;22.50;55.10;;;;;;5236192;28;20050;-58
2021/11/06 07:24:43;;;;;;;17.15;2.80;;;22.50;55.80;;;;;;5237190;28;20051;-57
2021/11/06 07:27:15;;;;;;;10.73;2.70;;;22.50;55.20;;;;;;5236931;28;20039;-57
2021/11/06 07:29:48;;;;;;;12.18;2.83;;;22.50;55.30;;;;;;5243511;28;20055;-48
2021/11/06 07:32:20;;;;;;;7.40;2.50;;;22.50;55.30;;;;;;5241733;28;20500;-53
2021/11/06 07:34:52;;;;;;;13.32;3.45;;;22.50;55.30;;;;;;5236226;28;20048;-57
2021/11/06 07:37:25;;;;;;;11.32;2.55;;;22.50;55.30;;;;;;5237004;28;20070;-54
2021/11/06 07:39:57;;;;;;;9.45;2.63;;;22.50;55.30;;;;;;5225109;28;20483;-54
2021/11/06 07:42:30;;;;;;;14.50;2.55;;;22.50;55.30;;;;;;5244474;28;20054;-58
2021/11/06 07:45:04;;;;;;;13.20;3.13;;;22.50;55.30;;;;;;5239586;28;20063;-57
2021/11/06 07:47:37;;;;;;;13.45;2.63;;;22.50;55.30;;;;;;5233017;28;21118;-56
2021/11/06 07:50:10;;;;;;;12.17;2.97;;;22.50;55.40;;;;;;5226059;28;20044;-59
2021/11/06 07:52:42;;;;;;;13.13;3.00;;;22.50;55.40;;;;;;5229004;28;21574;-58
2021/11/06 07:55:15;;;;;;;15.38;3.20;;;22.50;55.40;;;;;;5233413;28;20051;-52
2021/11/06 07:57:48;;;;;;;18.45;2.72;;;22.50;55.40;;;;;;5210799;28;21865;-58
2021/11/06 08:00:20;;;;;;;5.28;2.42;;;22.50;55.40;;;;;;5236275;28;20043;-55
2021/11/06 08:02:53;;;;;;;12.52;3.05;;;22.50;55.40;;;;;;5236431;28;20039;-59
2021/11/06 08:05:25;;;;;;;9.65;2.90;;;22.50;55.40;;;;;;5215462;28;20059;-53
2021/11/06 08:07:58;;;;;;;10.52;3.38;;;22.60;55.50;;;;;;5234468;27;20059;-56
2021/11/06 08:10:31;;;;;;;12.82;3.17;;;22.60;55.60;;;;;;5236921;28;20040;-59
2021/11/06 08:13:04;;;;;;;14.00;2.92;;;22.50;55.60;;;;;;5237832;28;20047;-53
2021/11/06 08:15:37;;;;;;;11.48;3.13;;;22.60;55.60;;;;;;5226685;28;20047;-56
2021/11/06 08:18:10;;;;;;;14.98;2.83;;;22.60;55.70;;;;;;5213207;28;20051;-58
2021/11/06 08:20:42;;;;;;;11.88;2.95;;;22.50;56.20;;;;;;5224942;28;20044;-55
2021/11/06 08:23:14;;;;;;;11.65;3.33;;;22.60;55.60;;;;;;5217093;28;20511;-52
2021/11/06 08:25:47;;;;;;;11.32;2.78;;;22.60;55.60;;;;;;5230580;28;20048;-56
2021/11/06 08:28:20;;;;;;;10.93;3.17;;;22.60;55.60;;;;;;5231218;28;20035;-51
2021/11/06 08:30:52;;;;;;;13.35;3.83;;;22.60;55.60;;;;;;5232219;28;20067;-53
2021/11/06 08:33:25;;;;;;;8.55;2.80;;;22.60;55.60;;;;;;5232302;28;20050;-57
2021/11/06 08:35:58;;;;;;;10.85;3.47;;;22.60;55.60;;;;;;5214993;28;20044;-51
2021/11/06 08:38:33;;;;;;;11.55;2.58;;;22.60;55.50;;;;;;5216629;28;20051;-58
2021/11/06 08:41:06;;;;;;;7.70;2.38;;;22.60;55.60;;;;;;5223541;28;20047;-58
2021/11/06 08:43:38;;;;;;;6.20;2.25;;;22.60;55.60;;;;;;5241416;28;20052;-50
2021/11/06 08:46:10;;;;;;;8.13;2.75;;;22.60;55.60;;;;;;5225864;28;20047;-59
2021/11/06 08:48:44;;;;;;;10.35;2.92;;;22.60;55.60;;;;;;5231534;28;20632;-51
2021/11/06 08:51:16;;;;;;;10.48;2.97;;;22.60;56.30;;;;;;5232651;28;20047;-54
2021/11/06 08:53:49;;;;;;;9.25;2.83;;;22.60;55.60;;;;;;5240452;28;20463;-55
2021/11/06 08:56:24;;;;;;;6.00;2.47;;;22.60;55.70;;;;;;5245063;28;20035;-56
2021/11/06 08:58:57;;;;;;;10.98;2.53;;;22.60;55.70;;;;;;5235311;28;20512;-55
2021/11/06 09:01:30;;;;;;;13.43;3.17;;;22.60;55.80;;;;;;5211275;28;20040;-54
2021/11/06 09:04:02;;;;;;;12.83;2.67;;;22.60;55.70;;;;;;5235991;28;20047;-56
2021/11/06 09:06:38;;;;;;;17.17;3.08;;;22.60;55.80;;;;;;5238222;28;20300;-54
2021/11/06 09:09:12;;;;;;;6.75;2.60;;;22.60;55.80;;;;;;5241726;28;20075;-53
2021/11/06 09:11:46;;;;;;;13.52;3.53;;;22.60;55.80;;;;;;5232934;28;20048;-59
2021/11/06 09:14:19;;;;;;;14.05;2.83;;;22.60;55.80;;;;;;5238694;28;20499;-52
2021/11/06 09:16:53;;;;;;;11.38;2.95;;;22.60;55.90;;;;;;5241006;28;20031;-59
2021/11/06 09:19:26;;;;;;;12.30;3.10;;;22.60;55.90;;;;;;5244606;28;20060;-59
2021/11/06 09:21:59;;;;;;;12.80;3.10;;;22.60;55.90;;;;;;5245981;28;20040;-54
2021/11/06 09:24:31;;;;;;;13.38;3.13;;;22.60;55.90;;;;;;5242165;28;20598;-50
2021/11/06 09:27:04;;;;;;;15.73;2.72;;;22.60;55.90;;;;;;5223845;28;20052;-55
2021/11/06 09:29:37;;;;;;;12.18;3.15;;;22.60;56.00;;;;;;5240096;28;20040;-54
2021/11/06 09:32:10;;;;;;;10.83;2.70;;;22.60;56.00;;;;;;5236473;28;20499;-55
2021/11/06 09:34:43;;;;;;;17.58;3.13;;;22.60;56.10;;;;;;5248222;28;20503;-58
2021/11/06 09:37:16;;;;;;;22.48;3.28;;;22.60;56.20;;;;;;5229705;28;20047;-57
2021/11/06 09:39:48;;;;;;;11.48;3.00;;;22.60;56.30;;;;;;5226595;28;20048;-56
2021/11/06 09:42:21;;;;;;;15.43;2.90;;;22.60;56.20;;;;;;5228831;28;20075;-52
2021/11/06 09:44:54;;;;;;;13.13;3.20;;;22.60;56.00;;;;;;5235973;28;20054;-53
2021/11/06 09:47:26;;;;;;;8.77;3.27;;;22.60;55.40;;;;;;5242879;28;21244;-58
2021/11/06 09:49:59;;;;;;;9.65;2.42;;;22.60;54.50;;;;;;5247753;28;20499;-56
2021/11/06 09:52:31;;;;;;;9.45;2.70;;;22.60;54.10;;;;;;5252098;28;20686;-53
2021/11/06 09:55:04;;;;;;;13.70;2.47;;;22.60;53.30;;;;;;5257158;28;20048;-52
2021/11/06 09:57:37;;;;;;;4.85;2.28;;;22.60;52.90;;;;;;5254413;28;20043;-54
2021/11/06 10:00:11;;;;;;;4.40;2.22;;;22.60;52.60;;;;;;5257526;28;20044;-52
2021/11/06 10:02:43;;;;;;;8.10;2.72;;;22.60;52.30;;;;;;5254220;28;20530;-54
2021/11/06 10:05:16;;;;;;;5.30;1.98;;;22.60;52.00;;;;;;5259044;28;20040;-56
2021/11/06 10:07:48;;;;;;;5.03;2.38;;;22.60;51.90;;;;;;5223277;28;20056;-50
2021/11/06 10:10:21;;;;;;;7.70;2.20;;;22.60;51.70;;;;;;5252851;28;20502;-52
2021/11/06 10:12:57;;;;;;;5.43;2.55;;;22.60;51.50;;;;;;5256241;28;20587;-58
2021/11/06 10:15:29;;;;;;;3.20;1.88;;;22.50;51.30;;;;;;5233638;28;20448;-54
2021/11/06 10:18:13;;;;;;;2.88;2.20;;;22.50;51.20;;;;;;5251462;28;20058;-55
2021/11/06 10:20:47;;;;;;;5.55;2.30;;;22.50;51.10;;;;;;5254966;28;20039;-54
2021/11/06 10:23:21;;;;;;;1.95;1.63;;;22.50;51.10;;;;;;5254542;28;20054;-55
2021/11/06 10:26:17;;;;;;;3.50;2.10;;;22.60;51.00;;;;;;5255058;28;20123;-54
2021/11/06 10:29:06;;;;;;;3.15;2.15;;;22.60;50.70;;;;;;5254090;28;20315;-55
2021/11/06 10:31:53;;;;;;;5.60;2.08;;;22.60;50.70;;;;;;5256810;28;20048;-57
2021/11/06 10:34:31;;;;;;;3.95;2.22;;;22.60;50.70;;;;;;5230596;28;20054;-54
2021/11/06 10:37:11;;;;;;;3.58;2.30;;;22.60;50.80;;;;;;5254062;28;20046;-54
2021/11/06 10:39:57;;;;;;;2.90;1.83;;;22.60;50.60;;;;;;5249963;28;20055;-52
2021/11/06 10:42:29;;;;;;;2.05;1.80;;;22.60;50.30;;;;;;5255897;28;20821;-53
2021/11/06 10:45:13;;;;;;;5.72;2.55;;;22.60;50.30;;;;;;5245314;28;20436;-51
2021/11/06 10:47:54;;;;;;;5.70;2.78;;;22.70;49.90;;;;;;5250918;28;20044;-51
2021/11/06 10:50:43;;;;;;;5.93;2.55;;;22.60;49.90;;;;;;5261697;28;20039;-53
2021/11/06 10:53:34;;;;;;;5.45;1.80;;;22.60;50.00;;;;;;5264627;28;20494;-52
2021/11/06 10:56:30;;;;;;;4.47;1.80;;;22.70;50.40;;;;;;5258395;28;20048;-50
2021/11/06 10:59:09;;;;;;;2.78;1.50;;;22.70;50.60;;;;;;5248824;28;20051;-52
2021/11/06 11:01:45;;;;;;;4.20;1.70;;;22.70;50.70;;;;;;5257955;28;20054;-54
2021/11/06 11:04:18;;;;;;;3.85;1.50;;;22.80;50.80;;;;;;5259220;28;20039;-55
2021/11/06 11:06:53;;;;;;;;;;;22.80;50.90;;;;;;5243723;28;20047;-54
2021/11/06 11:09:37;;;;;;;2.80;1.27;;;22.90;51.00;;;;;;5259829;28;25403;-53
2021/11/06 11:12:17;;;;;;;2.92;1.55;;;23.10;51.20;;;;;;5259171;28;20427;-53
2021/11/06 11:14:52;;;;;;;5.68;1.73;;;23.20;51.50;;;;;;5246753;28;20036;-55
2021/11/06 11:17:39;;;;;;;3.80;1.30;;;23.20;51.30;;;;;;5254810;28;20496;-54
2021/11/06 11:20:35;;;;;;;3.28;1.20;;;23.30;51.30;;;;;;5265579;28;20050;-56
2021/11/06 11:23:12;;;;;;;2.95;1.30;;;23.40;51.20;;;;;;5261730;28;20067;-56
2021/11/06 11:25:45;;;;;;;3.38;1.33;;;23.40;51.20;;;;;;5256779;28;20053;-56
2021/11/06 11:28:17;;;;;;;1.88;1.08;;;23.40;51.20;;;;;;5261515;28;20059;-52
2021/11/06 11:30:50;;;;;;;2.10;1.27;;;23.40;51.20;;;;;;5258132;28;20035;-53
2021/11/06 11:33:40;;;;;;;3.80;1.42;;;23.40;51.20;;;;;;5236791;28;20507;-52
2021/11/06 11:36:16;;;;;;;11.77;2.03;;;23.50;51.20;;;;;;5229131;28;20423;-50
2021/11/06 11:38:48;;;;;;;10.82;1.67;;;23.50;51.80;;;;;;5244512;28;20052;-51
2021/11/06 11:41:49;;;;;;;13.57;1.50;;;23.50;52.30;;;;;;5244407;28;20044;-57
2021/11/06 11:44:46;;;;;;;12.38;1.90;;;23.50;51.90;;;;;;5259528;28;20043;-55
2021/11/06 11:47:24;;;;;;;12.18;2.50;;;23.50;52.20;;;;;;5259864;28;20492;-55
2021/11/06 11:50:05;;;;;;;18.23;1.85;;;23.60;52.10;;;;;;5262927;28;20032;-56
2021/11/06 11:52:41;;;;;;;10.15;2.33;;;23.60;52.10;;;;;;5262932;28;20043;-53
2021/11/06 11:55:20;;;;;;;8.55;2.55;;;23.60;52.00;;;;;;5260602;28;20054;-52
2021/11/06 11:58:11;;;;;;;11.50;1.70;;;23.60;52.20;;;;;;5260509;28;20036;-54
2021/11/06 12:00:46;;;;;;;6.13;1.58;;;23.60;52.40;;;;;;5258414;28;21349;-51
2021/11/06 12:03:39;;;;;;;8.65;1.50;;;23.50;52.50;;;;;;5259094;28;20044;-53
2021/11/06 12:06:23;;;;;;;5.97;1.50;;;23.50;52.50;;;;;;5263663;28;20051;-50
2021/11/06 12:09:20;;;;;;;9.40;1.70;;;23.50;52.80;;;;;;5267020;28;20551;-51
2021/11/06 12:11:57;;;;;;;16.73;1.77;;;23.50;52.80;;;;;;5248821;28;20082;-54
2021/11/06 12:14:34;;;;;;;7.25;1.55;;;23.50;52.70;;;;;;5256898;28;20387;-51
2021/11/06 12:17:07;;;;;;;10.40;1.60;;;23.50;52.70;;;;;;5259243;28;20419;-48
2021/11/06 12:19:41;;;;;;;3.33;1.40;;;23.50;52.70;;;;;;5260761;28;20250;-54
2021/11/06 12:22:28;;;;;;;5.82;1.45;;;23.50;52.80;;;;;;5251972;28;20055;-55
2021/11/06 12:25:12;;;;;;;3.92;1.35;;;23.50;52.90;;;;;;5246285;28;20130;-51
2021/11/06 12:27:58;;;;;;;14.57;2.80;;;23.50;52.70;;;;;;5241967;28;20044;-50
2021/11/06 12:30:35;;;;;;;10.27;1.60;;;23.50;52.60;;;;;;5245963;27;20040;-52
2021/11/06 12:33:08;;;;;;;5.97;1.05;;;23.50;52.50;;;;;;5222207;28;20775;-49
2021/11/06 12:35:40;;;;;;;2.78;1.25;;;23.60;52.40;;;;;;5222015;28;20035;-57
2021/11/06 12:38:13;;;;;;;7.10;1.45;;;23.60;52.30;;;;;;5198820;28;20052;-50
2021/11/06 12:40:55;;;;;;;4.72;1.30;;;23.60;52.30;;;;;;5228212;28;20524;-58
2021/11/06 12:43:30;;;;;;;3.75;1.10;;;23.60;52.20;;;;;;5236823;28;20466;-53
2021/11/06 12:46:33;;;;;;;4.90;1.65;;;23.50;52.20;;;;;;5246195;28;20051;-55
2021/11/06 12:49:11;;;;;;;6.18;1.20;;;23.50;52.10;;;;;;5227400;28;20047;-55
2021/11/06 12:51:43;;;;;;;5.32;1.42;;;23.50;52.20;;;;;;5252391;28;20055;-50
2021/11/06 12:54:19;;;;;;;4.95;1.45;;;23.40;52.10;;;;;;5243447;28;20289;-51
2021/11/06 12:56:54;;;;;;;6.72;1.25;;;23.50;52.20;;;;;;5247106;28;20040;-58
2021/11/06 12:59:26;;;;;;;3.63;1.33;;;23.40;52.20;;;;;;5236729;28;20043;-58
2021/11/06 13:02:02;;;;;;;9.10;1.23;;;23.40;52.30;;;;;;5246472;28;20065;-52
2021/11/06 13:04:35;;;;;;;4.57;1.52;;;23.40;52.40;;;;;;5240791;28;20526;-54
2021/11/06 13:07:07;;;;;;;2.03;1.00;;;23.40;52.40;;;;;;5229573;28;20048;-50
2021/11/06 13:09:40;;;;;;;3.50;1.37;;;23.30;52.30;;;;;;5240617;28;20050;-51
2021/11/06 13:12:14;;;;;;;5.53;1.38;;;23.30;52.40;;;;;;5245954;28;20515;-53
2021/11/06 13:14:59;;;;;;;4.03;1.30;;;23.30;52.40;;;;;;5234788;28;20062;-53
2021/11/06 13:17:37;;;;;;;8.13;1.67;;;23.30;52.50;;;;;;5247004;28;20522;-49
2021/11/06 13:20:12;;;;;;;3.03;1.35;;;23.30;52.60;;;;;;5257181;28;20043;-58